createdAt,value
2023-04-25T00:01:52.367Z,49.13
2023-04-25T00:04:19.319Z,48.75
2023-04-25T00:06:46.341Z,48.47
2023-04-25T00:09:12.853Z,48.97
2023-04-25T00:11:39.440Z,48.78
2023-04-25T00:14:06.030Z,48.96
2023-04-25T00:16:34.911Z,48.64
2023-04-25T00:19:03.288Z,49.27
2023-04-25T00:21:30.134Z,48.74
2023-04-25T00:23:57.045Z,48.94
2023-04-25T00:26:23.784Z,48.96
2023-04-25T00:28:50.457Z,49.37
2023-04-25T00:31:17.107Z,49.43
2023-04-25T00:33:43.717Z,49.26
2023-04-25T00:36:10.677Z,49.07
2023-04-25T00:38:37.747Z,48.86
2023-04-25T00:41:05.361Z,48.65
2023-04-25T00:43:33.814Z,48.99
2023-04-25T00:46:01.683Z,48.60
2023-04-25T00:48:28.534Z,48.48
2023-04-25T00:50:57.616Z,48.59
2023-04-25T00:53:25.621Z,48.45
2023-04-25T00:55:52.585Z,48.94
2023-04-25T00:58:20.826Z,48.57
2023-04-25T01:00:48.756Z,48.67
2023-04-25T01:03:21.418Z,48.77
2023-04-25T01:05:49.107Z,48.48
2023-04-25T01:08:15.883Z,48.49
2023-04-25T01:10:43.559Z,48.59
2023-04-25T01:13:10.333Z,49.11
2023-04-25T01:15:37.101Z,49.16
2023-04-25T01:18:06.444Z,48.97
2023-04-25T01:20:34.062Z,49.39
2023-04-25T01:23:01.486Z,49.18
2023-04-25T01:25:28.019Z,49.77
2023-04-25T01:27:54.648Z,49.51
2023-04-25T01:30:21.269Z,49.79
2023-04-25T01:32:49.130Z,49.77
2023-04-25T01:35:15.942Z,49.98
2023-04-25T01:37:44.014Z,50.33
2023-04-25T01:40:12.520Z,50.00
2023-04-25T01:42:41.658Z,50.33
2023-04-25T01:45:09.860Z,50.19
2023-04-25T01:47:36.470Z,50.85
2023-04-25T01:50:08.389Z,51.11
2023-04-25T01:52:35.188Z,50.42
2023-04-25T01:55:03.141Z,51.35
2023-04-25T01:57:29.649Z,50.54
2023-04-25T02:00:04.378Z,51.04
2023-04-25T02:02:31.151Z,50.58
2023-04-25T02:04:57.767Z,51.14
2023-04-25T02:07:24.307Z,50.78
2023-04-25T02:09:50.919Z,50.65
2023-04-25T02:12:17.446Z,50.42
2023-04-25T02:14:44.078Z,50.09
2023-04-25T02:17:11.037Z,49.77
2023-04-25T02:19:37.712Z,49.61
2023-04-25T02:22:04.291Z,49.38
2023-04-25T02:24:30.965Z,49.28
2023-04-25T02:26:57.482Z,49.04
2023-04-25T02:29:24.364Z,49.27
2023-04-25T02:31:51.314Z,49.25
2023-04-25T02:34:17.955Z,49.00
2023-04-25T02:36:44.515Z,49.11
2023-04-25T02:39:11.712Z,48.85
2023-04-25T02:41:38.364Z,48.93
2023-04-25T02:44:04.971Z,48.57
2023-04-25T02:46:39.090Z,48.86
2023-04-25T02:49:06.734Z,48.93
2023-04-25T02:51:33.550Z,49.22
2023-04-25T02:54:00.374Z,48.93
2023-04-25T02:56:27.804Z,49.29
2023-04-25T02:58:54.684Z,49.33
2023-04-25T03:01:21.414Z,49.09
2023-04-25T03:03:48.136Z,49.22
2023-04-25T03:06:15.764Z,49.58
2023-04-25T03:08:42.335Z,49.92
2023-04-25T03:11:08.911Z,49.94
2023-04-25T03:13:35.548Z,49.68
2023-04-25T03:16:02.231Z,50.19
2023-04-25T03:18:28.888Z,50.05
2023-04-25T03:20:55.472Z,50.23
2023-04-25T03:23:22.207Z,50.27
2023-04-25T03:25:48.757Z,50.39
2023-04-25T03:28:15.590Z,50.92
2023-04-25T03:30:42.157Z,50.75
2023-04-25T03:33:08.676Z,51.03
2023-04-25T03:35:35.211Z,51.03
2023-04-25T03:38:01.747Z,51.05
2023-04-25T03:40:28.281Z,50.65
2023-04-25T03:42:54.982Z,50.87
2023-04-25T03:45:21.535Z,50.63
2023-04-25T03:47:48.097Z,50.62
2023-04-25T03:50:14.712Z,50.73
2023-04-25T03:52:41.325Z,51.16
2023-04-25T03:55:08.279Z,50.51
2023-04-25T03:57:34.836Z,50.06
2023-04-25T04:00:01.442Z,49.87
2023-04-25T04:02:28.159Z,50.21
2023-04-25T04:04:54.941Z,49.81
2023-04-25T04:07:21.703Z,49.56
2023-04-25T04:09:48.257Z,49.47
2023-04-25T04:12:14.757Z,49.18
2023-04-25T04:14:41.562Z,49.26
2023-04-25T04:17:08.161Z,49.04
2023-04-25T04:19:34.721Z,49.04
2023-04-25T04:22:01.291Z,49.45
2023-04-25T04:24:27.807Z,48.70
2023-04-25T04:26:54.383Z,48.70
2023-04-25T04:29:24.037Z,49.09
2023-04-25T04:31:51.979Z,49.00
2023-04-25T04:34:19.414Z,49.29
2023-04-25T04:36:47.234Z,49.37
2023-04-25T04:39:14.585Z,49.06
2023-04-25T04:41:41.475Z,49.50
2023-04-25T04:44:09.901Z,49.45
2023-04-25T04:46:38.852Z,49.30
2023-04-25T04:49:18.359Z,49.39
2023-04-25T04:51:48.026Z,49.79
2023-04-25T04:54:14.687Z,49.40
2023-04-25T04:56:41.291Z,50.00
2023-04-25T04:59:08.588Z,49.91
2023-04-25T05:01:38.320Z,50.27
2023-04-25T05:04:05.210Z,49.83
2023-04-25T05:06:32.193Z,50.32
2023-04-25T05:08:59.011Z,50.84
2023-04-25T05:11:28.775Z,50.42
2023-04-25T05:13:55.440Z,50.81
2023-04-25T05:16:22.034Z,50.55
2023-04-25T05:18:49.025Z,50.87
2023-04-25T05:21:15.610Z,50.88
2023-04-25T05:23:42.110Z,50.65
2023-04-25T05:26:14.637Z,50.84
2023-04-25T05:28:42.673Z,50.46
2023-04-25T05:31:11.337Z,50.88
2023-04-25T05:33:37.908Z,50.49
2023-04-25T05:36:04.725Z,50.58
2023-04-25T05:38:33.239Z,50.46
2023-04-25T05:41:01.410Z,50.69
2023-04-25T05:43:27.898Z,50.35
2023-04-25T05:45:54.523Z,50.13
2023-04-25T05:48:21.154Z,50.64
2023-04-25T05:50:47.671Z,50.51
2023-04-25T05:53:14.204Z,50.61
2023-04-25T05:55:40.751Z,50.00
2023-04-25T05:58:08.092Z,49.84
2023-04-25T06:00:34.791Z,50.45
2023-04-25T06:03:04.562Z,50.28
2023-04-25T06:05:31.613Z,50.10
2023-04-25T06:07:58.343Z,49.83
2023-04-25T06:10:24.875Z,49.84
2023-04-25T06:12:51.417Z,49.85
2023-04-25T06:15:28.096Z,50.08
2023-04-25T06:17:56.086Z,50.08
2023-04-25T06:20:24.969Z,50.23
2023-04-25T06:22:52.790Z,50.09
2023-04-25T06:25:19.451Z,50.61
2023-04-25T06:27:46.014Z,50.20
2023-04-25T06:30:16.185Z,50.20
2023-04-25T06:32:42.862Z,50.05
2023-04-25T06:35:09.851Z,49.68
2023-04-25T06:37:36.402Z,49.81
2023-04-25T06:40:03.450Z,50.01
2023-04-25T06:42:29.968Z,49.20
2023-04-25T06:44:56.823Z,49.05
2023-04-25T06:47:23.360Z,49.28
2023-04-25T06:49:50.547Z,49.01
2023-04-25T06:52:19.039Z,49.06
2023-04-25T06:54:46.207Z,48.85
2023-04-25T06:57:12.778Z,48.40
2023-04-25T06:59:39.335Z,48.51
2023-04-25T07:02:07.039Z,48.60
2023-04-25T07:04:33.860Z,48.89
2023-04-25T07:07:01.971Z,48.85
2023-04-25T07:09:28.525Z,48.88
2023-04-25T07:11:55.063Z,48.95
2023-04-25T07:14:21.613Z,49.21
2023-04-25T07:16:48.286Z,48.99
2023-04-25T07:19:15.044Z,48.64
2023-04-25T07:21:41.584Z,48.98
2023-04-25T07:24:08.156Z,49.69
2023-04-25T07:26:34.670Z,49.48
2023-04-25T07:29:01.440Z,49.57
2023-04-25T07:31:28.027Z,49.21
2023-04-25T07:33:54.587Z,49.71
2023-04-25T07:36:22.007Z,49.52
2023-04-25T07:38:48.658Z,49.37
2023-04-25T07:41:15.301Z,49.78
2023-04-25T07:43:41.809Z,49.83
2023-04-25T07:46:08.450Z,49.74
2023-04-25T07:48:35.021Z,49.29
2023-04-25T07:51:01.676Z,49.76
2023-04-25T07:53:28.238Z,49.86
2023-04-25T07:55:54.787Z,49.70
2023-04-25T07:58:22.925Z,49.74
2023-04-25T08:00:49.823Z,49.79
2023-04-25T08:03:16.631Z,49.73
2023-04-25T08:05:43.794Z,49.59
2023-04-25T08:08:10.641Z,49.41
2023-04-25T08:10:37.202Z,49.50
2023-04-25T08:13:03.996Z,49.50
2023-04-25T08:15:30.774Z,49.34
2023-04-25T08:17:57.417Z,49.71
2023-04-25T08:20:24.081Z,49.49
2023-04-25T08:22:50.682Z,49.69
2023-04-25T08:25:17.248Z,49.50
2023-04-25T08:27:44.320Z,49.47
2023-04-25T08:30:11.201Z,49.53
2023-04-25T08:32:40.915Z,49.29
2023-04-25T08:35:07.873Z,49.44
2023-04-25T08:37:34.489Z,49.47
2023-04-25T08:40:01.184Z,49.20
2023-04-25T08:42:29.917Z,49.44
2023-04-25T08:44:57.269Z,49.53
2023-04-25T08:47:24.557Z,49.70
2023-04-25T08:49:54.328Z,49.09
2023-04-25T08:52:28.730Z,48.55
2023-04-25T08:54:56.404Z,48.59
2023-04-25T08:57:23.601Z,48.87
2023-04-25T08:59:50.401Z,48.76
2023-04-25T09:02:19.041Z,49.09
2023-04-25T09:04:46.310Z,48.98
2023-04-25T09:07:13.269Z,49.27
2023-04-25T09:09:40.427Z,49.25
2023-04-25T09:12:07.228Z,49.14
2023-04-25T09:14:33.774Z,49.41
2023-04-25T09:17:02.426Z,48.83
2023-04-25T09:19:40.232Z,48.96
2023-04-25T09:22:09.116Z,48.65
2023-04-25T09:24:39.843Z,48.30
2023-04-25T09:27:08.035Z,48.31
2023-04-25T09:29:37.228Z,48.14
2023-04-25T09:32:17.085Z,47.98
2023-04-25T09:34:51.882Z,48.01
2023-04-25T09:37:21.422Z,48.07
2023-04-25T09:39:53.545Z,47.81
2023-04-25T09:42:24.792Z,48.09
2023-04-25T09:44:54.388Z,47.68
2023-04-25T09:47:23.500Z,48.05
2023-04-25T09:49:50.948Z,47.96
2023-04-25T09:52:24.541Z,48.02
2023-04-25T09:54:52.820Z,48.53
2023-04-25T09:57:23.816Z,48.33
2023-04-25T09:59:55.121Z,48.22
2023-04-25T10:02:24.032Z,48.41
2023-04-25T10:04:53.974Z,48.29
2023-04-25T10:07:22.383Z,48.37
2023-04-25T10:09:53.090Z,48.98
2023-04-25T10:12:20.957Z,48.90
2023-04-25T10:14:48.618Z,48.54
2023-04-25T10:17:15.239Z,49.02
2023-04-25T10:19:42.000Z,48.42
2023-04-25T10:22:21.141Z,47.87
2023-04-25T10:24:48.309Z,48.05
2023-04-25T10:27:15.541Z,48.00
2023-04-25T10:29:44.299Z,47.68
2023-04-25T10:32:14.064Z,47.63
2023-04-25T10:34:41.744Z,47.75
2023-04-25T10:37:12.263Z,47.60
2023-04-25T10:39:43.759Z,47.05
2023-04-25T10:42:10.364Z,47.50
2023-04-25T10:44:39.099Z,47.58
2023-04-25T10:47:08.568Z,47.30
2023-04-25T10:49:42.944Z,47.27
2023-04-25T10:52:17.597Z,47.63
2023-04-25T10:54:54.452Z,47.59
2023-04-25T10:57:49.624Z,47.36
2023-04-25T11:00:19.713Z,46.63
2023-04-25T11:03:00.043Z,46.87
2023-04-25T11:05:41.075Z,46.74
2023-04-25T11:08:17.308Z,47.19
2023-04-25T11:10:43.888Z,46.64
2023-04-25T11:13:10.431Z,46.89
2023-04-25T11:15:38.043Z,46.33
2023-04-25T11:18:04.746Z,46.49
2023-04-25T11:20:31.778Z,46.31
2023-04-25T11:25:35.558Z,46.30
2023-04-25T11:28:05.111Z,46.06
2023-04-25T11:30:31.946Z,45.64
2023-04-25T11:32:58.737Z,46.57
2023-04-25T11:35:26.754Z,45.73
2023-04-25T11:37:53.673Z,45.65
2023-04-25T11:40:20.449Z,46.56
2023-04-25T11:42:48.218Z,45.68
2023-04-25T11:45:15.609Z,46.28
2023-04-25T11:47:42.410Z,45.56
2023-04-25T11:50:09.600Z,45.70
2023-04-25T11:52:40.666Z,45.58
2023-04-25T11:55:11.133Z,45.69
2023-04-25T11:57:42.773Z,45.70
2023-04-25T12:00:21.197Z,45.77
2023-04-25T12:02:49.335Z,45.43
2023-04-25T12:05:31.244Z,46.00
2023-04-25T12:08:10.172Z,46.12
2023-04-25T12:10:38.848Z,45.70
2023-04-25T12:13:22.816Z,45.84
2023-04-25T12:15:49.915Z,46.25
2023-04-25T12:18:20.758Z,45.75
2023-04-25T12:20:47.346Z,46.01
2023-04-25T12:23:13.872Z,45.96
2023-04-25T12:25:42.897Z,46.18
2023-04-25T12:28:20.628Z,45.94
2023-04-25T12:31:00.731Z,46.04
2023-04-25T12:33:29.733Z,45.93
2023-04-25T12:35:57.176Z,46.11
2023-04-25T12:38:31.346Z,46.00
2023-04-25T12:41:01.410Z,45.84
2023-04-25T12:43:28.071Z,46.09
2023-04-25T12:45:56.201Z,45.83
2023-04-25T12:48:23.649Z,45.82
2023-04-25T12:50:52.704Z,45.94
2023-04-25T12:53:23.993Z,45.61
2023-04-25T12:55:50.535Z,45.70
2023-04-25T12:58:18.594Z,45.80
2023-04-25T13:00:46.093Z,45.55
2023-04-25T13:03:13.601Z,45.42
2023-04-25T13:05:40.866Z,45.77
2023-04-25T13:08:07.527Z,45.18
2023-04-25T13:10:35.093Z,45.57
2023-04-25T13:13:02.282Z,45.42
2023-04-25T13:15:29.133Z,45.06
2023-04-25T13:17:56.785Z,45.03
2023-04-25T13:20:23.648Z,45.47
2023-04-25T13:22:50.236Z,45.28
2023-04-25T13:25:17.476Z,45.52
2023-04-25T13:27:45.320Z,45.44
2023-04-25T13:30:12.484Z,45.31
2023-04-25T13:32:39.570Z,45.51
2023-04-25T13:35:12.575Z,44.85
2023-04-25T13:37:39.714Z,44.88
2023-04-25T13:40:12.239Z,44.91
2023-04-25T13:42:39.491Z,45.32
2023-04-25T13:45:06.728Z,45.20
2023-04-25T13:47:36.021Z,44.84
2023-04-25T13:50:04.165Z,44.93
2023-04-25T13:52:30.979Z,44.85
2023-04-25T13:54:57.507Z,45.27
2023-04-25T13:57:24.317Z,45.13
2023-04-25T13:59:51.621Z,44.79
2023-04-25T14:02:18.344Z,45.14
2023-04-25T14:04:45.023Z,45.10
2023-04-25T14:07:12.047Z,45.48
2023-04-25T14:09:38.645Z,44.87
2023-04-25T14:12:05.368Z,45.03
2023-04-25T14:14:31.907Z,44.84
2023-04-25T14:16:58.583Z,44.82
2023-04-25T14:19:25.614Z,45.49
2023-04-25T14:21:52.206Z,45.20
2023-04-25T14:24:18.780Z,45.69
2023-04-25T14:26:45.562Z,44.97
2023-04-25T14:29:14.612Z,45.74
2023-04-25T14:31:41.946Z,45.49
2023-04-25T14:34:08.990Z,45.43
2023-04-25T14:36:36.819Z,45.88
2023-04-25T14:39:06.091Z,45.32
2023-04-25T14:41:32.863Z,45.53
2023-04-25T14:43:59.414Z,45.72
2023-04-25T14:46:26.733Z,45.10
2023-04-25T14:48:53.742Z,45.31
2023-04-25T14:51:20.327Z,45.03
2023-04-25T14:53:46.894Z,45.66
2023-04-25T14:56:13.635Z,45.28
2023-04-25T14:58:41.363Z,45.28
2023-04-25T15:01:08.149Z,45.44
2023-04-25T15:03:35.294Z,45.53
2023-04-25T15:06:02.002Z,45.42
2023-04-25T15:08:28.495Z,45.69
2023-04-25T15:10:55.066Z,45.65
2023-04-25T15:13:22.049Z,45.08
2023-04-25T15:15:54.459Z,45.37
2023-04-25T15:18:24.745Z,44.88
2023-04-25T15:20:52.693Z,45.75
2023-04-25T15:23:20.738Z,45.53
2023-04-25T15:25:48.213Z,45.68
2023-04-25T15:28:17.868Z,45.72
2023-04-25T15:30:45.688Z,45.64
2023-04-25T15:33:12.248Z,45.66
2023-04-25T15:35:38.819Z,45.92
2023-04-25T15:38:05.901Z,45.07
2023-04-25T15:40:32.528Z,44.56
2023-04-25T15:42:59.616Z,45.17
2023-04-25T15:45:26.746Z,45.40
2023-04-25T15:47:55.781Z,45.58
2023-04-25T15:50:22.971Z,45.20
2023-04-25T15:52:50.593Z,44.98
2023-04-25T15:55:18.427Z,45.33
2023-04-25T15:57:44.988Z,45.14
2023-04-25T16:00:13.202Z,45.41
2023-04-25T16:02:41.013Z,45.29
2023-04-25T16:05:09.027Z,45.00
2023-04-25T16:07:36.280Z,45.03
2023-04-25T16:10:03.406Z,45.42
2023-04-25T16:12:31.148Z,45.09
2023-04-25T16:14:58.238Z,45.17
2023-04-25T16:17:25.866Z,45.28
2023-04-25T16:19:52.433Z,45.28
2023-04-25T16:22:19.097Z,45.28
2023-04-25T16:24:45.660Z,45.18
2023-04-25T16:27:12.297Z,45.55
2023-04-25T16:29:39.303Z,45.47
2023-04-25T16:32:06.223Z,45.62
2023-04-25T16:34:32.805Z,45.67
2023-04-25T16:36:59.905Z,45.33
2023-04-25T16:39:26.489Z,45.38
2023-04-25T16:41:53.469Z,45.56
2023-04-25T16:44:19.988Z,45.43
2023-04-25T16:46:46.563Z,45.99
2023-04-25T16:49:13.188Z,45.46
2023-04-25T16:51:39.801Z,45.64
2023-04-25T16:54:06.460Z,46.24
2023-04-25T16:56:33.007Z,46.30
2023-04-25T16:58:59.582Z,46.10
2023-04-25T17:01:26.369Z,45.81
2023-04-25T17:03:53.163Z,45.84
2023-04-25T17:06:19.861Z,46.03
2023-04-25T17:08:46.456Z,46.17
2023-04-25T17:11:13.154Z,46.34
2023-04-25T17:13:39.974Z,46.38
2023-04-25T17:16:07.473Z,45.76
2023-04-25T17:18:34.084Z,46.24
2023-04-25T17:21:00.712Z,46.13
2023-04-25T17:23:27.314Z,46.19
2023-04-25T17:25:53.832Z,45.85
2023-04-25T17:28:20.393Z,45.69
2023-04-25T17:30:47.009Z,45.73
2023-04-25T17:33:13.711Z,46.33
2023-04-25T17:35:40.675Z,45.99
2023-04-25T17:38:07.356Z,46.18
2023-04-25T17:40:33.877Z,46.07
2023-04-25T17:43:00.405Z,46.29
2023-04-25T17:45:28.571Z,46.38
2023-04-25T17:47:55.166Z,46.13
2023-04-25T17:50:21.694Z,46.40
2023-04-25T17:52:48.659Z,46.27
2023-04-25T17:55:15.373Z,46.58
2023-04-25T17:57:41.886Z,46.72
2023-04-25T18:00:09.357Z,46.75
2023-04-25T18:02:36.707Z,46.29
2023-04-25T18:05:09.131Z,46.21
2023-04-25T18:07:36.366Z,46.51
2023-04-25T18:10:05.962Z,46.33
2023-04-25T18:12:34.039Z,46.25
2023-04-25T18:15:01.791Z,46.14
2023-04-25T18:17:28.590Z,46.12
2023-04-25T18:19:55.470Z,46.66
2023-04-25T18:22:22.370Z,46.10
2023-04-25T18:24:50.789Z,46.06
2023-04-25T18:27:17.419Z,45.71
2023-04-25T18:29:45.416Z,45.93
2023-04-25T18:32:12.551Z,45.80
2023-04-25T18:34:42.074Z,45.86
2023-04-25T18:37:08.830Z,46.15
2023-04-25T18:39:35.353Z,45.62
2023-04-25T18:42:06.706Z,45.63
2023-04-25T18:44:36.594Z,45.45
2023-04-25T18:47:03.258Z,46.26
2023-04-25T18:49:31.318Z,46.06
2023-04-25T18:51:58.058Z,45.55
2023-04-25T18:54:24.719Z,45.92
2023-04-25T18:56:51.743Z,45.97
2023-04-25T18:59:18.640Z,45.92
2023-04-25T19:01:45.753Z,45.51
2023-04-25T19:04:12.446Z,45.34
2023-04-25T19:06:39.137Z,45.70
2023-04-25T19:09:05.757Z,45.99
2023-04-25T19:11:32.287Z,45.95
2023-04-25T19:13:59.242Z,46.19
2023-04-25T19:16:27.404Z,45.67
2023-04-25T19:18:55.392Z,45.76
2023-04-25T19:21:22.560Z,46.09
2023-04-25T19:23:49.234Z,45.97
2023-04-25T19:26:16.407Z,45.88
2023-04-25T19:28:44.904Z,46.00
2023-04-25T19:31:13.053Z,46.04
2023-04-25T19:33:39.643Z,46.17
2023-04-25T19:36:06.211Z,46.09
2023-04-25T19:38:32.750Z,46.52
2023-04-25T19:40:59.298Z,46.50
2023-04-25T19:43:26.150Z,45.86
2023-04-25T19:45:52.861Z,46.22
2023-04-25T19:48:19.931Z,45.85
2023-04-25T19:50:46.493Z,45.93
2023-04-25T19:53:13.008Z,45.93
2023-04-25T19:55:39.613Z,45.79
2023-04-25T19:58:06.918Z,45.75
2023-04-25T20:00:33.477Z,46.11
2023-04-25T20:03:00.063Z,45.60
2023-04-25T20:05:27.420Z,46.18
2023-04-25T20:07:53.981Z,46.26
2023-04-25T20:10:20.711Z,45.75
2023-04-25T20:12:47.296Z,46.08
2023-04-25T20:15:13.869Z,45.85
2023-04-25T20:17:42.339Z,45.66
2023-04-25T20:20:10.829Z,45.69
2023-04-25T20:22:40.048Z,45.74
2023-04-25T20:25:08.746Z,45.62
2023-04-25T20:27:37.837Z,45.54
2023-04-25T20:30:08.418Z,45.58
2023-04-25T20:32:36.356Z,45.70
2023-04-25T20:35:09.025Z,45.06
2023-04-25T20:37:36.280Z,45.47
2023-04-25T20:40:06.322Z,45.38
2023-04-25T20:42:32.901Z,45.69
2023-04-25T20:44:59.432Z,45.56
2023-04-25T20:47:26.210Z,44.99
2023-04-25T20:49:53.011Z,45.59
2023-04-25T20:52:19.530Z,45.90
2023-04-25T20:54:50.558Z,46.02
2023-04-25T20:57:17.538Z,46.00
2023-04-25T20:59:44.782Z,45.67
2023-04-25T21:02:12.720Z,45.68
2023-04-25T21:04:39.474Z,46.02
2023-04-25T21:07:06.313Z,45.73
2023-04-25T21:09:32.867Z,46.22
2023-04-25T21:11:59.444Z,45.69
2023-04-25T21:14:26.157Z,45.69
2023-04-25T21:16:52.748Z,45.84
2023-04-25T21:19:19.276Z,46.04
2023-04-25T21:21:45.885Z,46.09
2023-04-25T21:24:14.397Z,46.02
2023-04-25T21:26:40.959Z,46.23
2023-04-25T21:29:07.538Z,46.32
2023-04-25T21:31:34.638Z,46.21
2023-04-25T21:34:01.215Z,46.45
2023-04-25T21:36:27.844Z,46.47
2023-04-25T21:38:54.647Z,46.40
2023-04-25T21:41:22.539Z,46.32
2023-04-25T21:43:49.119Z,46.41
2023-04-25T21:46:23.297Z,46.66
2023-04-25T21:48:51.641Z,46.49
2023-04-25T21:51:18.706Z,46.36
2023-04-25T21:53:45.282Z,46.68
2023-04-25T21:56:12.422Z,46.36
2023-04-25T21:58:38.921Z,46.35
2023-04-25T22:01:05.462Z,46.38
2023-04-25T22:03:32.617Z,45.96
2023-04-25T22:05:59.284Z,45.87
2023-04-25T22:08:25.954Z,45.91
2023-04-25T22:10:55.089Z,45.58
2023-04-25T22:13:22.696Z,45.59
2023-04-25T22:15:49.327Z,45.65
2023-04-25T22:18:16.332Z,45.76
2023-04-25T22:20:44.337Z,45.53
2023-04-25T22:23:12.173Z,45.79
2023-04-25T22:25:38.814Z,45.55
2023-04-25T22:28:05.388Z,45.46
2023-04-25T22:30:32.637Z,45.37
2023-04-25T22:32:59.317Z,45.40
2023-04-25T22:35:26.159Z,45.24
2023-04-25T22:37:53.013Z,45.55
2023-04-25T22:40:19.615Z,45.56
2023-04-25T22:42:46.197Z,45.59
2023-04-25T22:45:12.931Z,45.61
2023-04-25T22:47:40.346Z,45.34
2023-04-25T22:50:12.379Z,45.30
2023-04-25T22:52:39.815Z,45.43
2023-04-25T22:55:06.920Z,45.33
2023-04-25T22:57:33.673Z,45.82
2023-04-25T23:00:00.240Z,46.01
2023-04-25T23:02:27.395Z,45.19
2023-04-25T23:04:54.951Z,46.06
2023-04-25T23:07:21.619Z,46.00
2023-04-25T23:09:48.131Z,45.81
2023-04-25T23:12:18.053Z,45.83
2023-04-25T23:14:48.790Z,45.80
2023-04-25T23:17:15.275Z,45.99
2023-04-25T23:19:41.849Z,45.45
2023-04-25T23:22:08.674Z,45.35
2023-04-25T23:24:41.562Z,45.02
2023-04-25T23:27:08.110Z,45.30
2023-04-25T23:29:34.785Z,45.49
2023-04-25T23:32:04.532Z,45.53
2023-04-25T23:34:31.879Z,45.36
2023-04-25T23:37:04.456Z,45.47
2023-04-25T23:39:31.051Z,45.41
2023-04-25T23:41:57.780Z,45.37
2023-04-25T23:44:24.404Z,45.10
2023-04-25T23:46:51.282Z,45.41
2023-04-25T23:49:17.854Z,45.45
2023-04-25T23:51:44.416Z,45.63
2023-04-25T23:54:11.159Z,45.36
2023-04-25T23:56:37.787Z,45.84
2023-04-25T23:59:04.869Z,45.90
